sensor_id;sensor_type;location;lat;lon;timestamp;P1;durP1;ratioP1;P2;durP2;ratioP2
35540;SDS011;21650;48.840;9.162;2023-03-16T00:00:35;14.77;;;9.37;;
35540;SDS011;21650;48.840;9.162;2023-03-16T00:03:01;10.73;;;9.07;;
35540;SDS011;21650;48.840;9.162;2023-03-16T00:05:26;19.70;;;10.73;;
35540;SDS011;21650;48.840;9.162;2023-03-16T00:07:52;12.33;;;9.60;;
35540;SDS011;21650;48.840;9.162;2023-03-16T00:10:17;15.30;;;10.17;;
35540;SDS011;21650;48.840;9.162;2023-03-16T00:12:43;12.87;;;8.90;;
35540;SDS011;21650;48.840;9.162;2023-03-16T00:15:09;12.23;;;9.57;;
35540;SDS011;21650;48.840;9.162;2023-03-16T00:17:36;16.90;;;10.33;;
35540;SDS011;21650;48.840;9.162;2023-03-16T00:20:01;16.40;;;10.30;;
35540;SDS011;21650;48.840;9.162;2023-03-16T00:22:30;15.83;;;10.03;;
35540;SDS011;21650;48.840;9.162;2023-03-16T00:24:55;14.67;;;10.67;;
35540;SDS011;21650;48.840;9.162;2023-03-16T00:27:22;17.07;;;9.33;;
35540;SDS011;21650;48.840;9.162;2023-03-16T00:29:50;14.93;;;9.60;;
35540;SDS011;21650;48.840;9.162;2023-03-16T00:32:21;14.60;;;10.30;;
35540;SDS011;21650;48.840;9.162;2023-03-16T00:34:57;17.10;;;10.83;;
35540;SDS011;21650;48.840;9.162;2023-03-16T00:37:23;17.80;;;11.53;;
35540;SDS011;21650;48.840;9.162;2023-03-16T00:39:50;16.30;;;10.90;;
35540;SDS011;21650;48.840;9.162;2023-03-16T00:42:20;18.30;;;11.33;;
35540;SDS011;21650;48.840;9.162;2023-03-16T00:44:51;16.00;;;10.53;;
35540;SDS011;21650;48.840;9.162;2023-03-16T00:47:21;15.93;;;10.40;;
35540;SDS011;21650;48.840;9.162;2023-03-16T00:49:52;15.03;;;9.93;;
35540;SDS011;21650;48.840;9.162;2023-03-16T00:52:18;15.87;;;10.37;;
35540;SDS011;21650;48.840;9.162;2023-03-16T00:54:44;16.10;;;11.00;;
35540;SDS011;21650;48.840;9.162;2023-03-16T00:57:12;13.70;;;10.50;;
35540;SDS011;21650;48.840;9.162;2023-03-16T00:59:40;12.60;;;9.60;;
35540;SDS011;21650;48.840;9.162;2023-03-16T01:02:06;15.37;;;10.93;;
35540;SDS011;21650;48.840;9.162;2023-03-16T01:04:32;14.73;;;10.57;;
35540;SDS011;21650;48.840;9.162;2023-03-16T01:07:00;16.17;;;11.53;;
35540;SDS011;21650;48.840;9.162;2023-03-16T01:09:28;16.87;;;10.73;;
35540;SDS011;21650;48.840;9.162;2023-03-16T01:11:54;15.23;;;10.63;;
35540;SDS011;21650;48.840;9.162;2023-03-16T01:14:20;16.00;;;10.70;;
35540;SDS011;21650;48.840;9.162;2023-03-16T01:16:46;20.27;;;11.90;;
35540;SDS011;21650;48.840;9.162;2023-03-16T01:19:12;15.67;;;10.67;;
35540;SDS011;21650;48.840;9.162;2023-03-16T01:21:39;15.33;;;10.67;;
35540;SDS011;21650;48.840;9.162;2023-03-16T01:24:04;13.83;;;10.63;;
35540;SDS011;21650;48.840;9.162;2023-03-16T01:26:30;15.60;;;11.13;;
35540;SDS011;21650;48.840;9.162;2023-03-16T01:28:56;18.70;;;10.73;;
35540;SDS011;21650;48.840;9.162;2023-03-16T01:31:22;16.17;;;11.13;;
35540;SDS011;21650;48.840;9.162;2023-03-16T01:33:47;18.97;;;10.87;;
35540;SDS011;21650;48.840;9.162;2023-03-16T01:36:14;17.47;;;11.23;;
35540;SDS011;21650;48.840;9.162;2023-03-16T01:38:41;16.77;;;11.67;;
35540;SDS011;21650;48.840;9.162;2023-03-16T01:41:07;16.23;;;12.07;;
35540;SDS011;21650;48.840;9.162;2023-03-16T01:43:34;14.53;;;11.20;;
35540;SDS011;21650;48.840;9.162;2023-03-16T01:48:30;16.57;;;12.17;;
35540;SDS011;21650;48.840;9.162;2023-03-16T01:51:09;19.97;;;12.20;;
35540;SDS011;21650;48.840;9.162;2023-03-16T01:53:49;18.00;;;12.43;;
35540;SDS011;21650;48.840;9.162;2023-03-16T01:56:18;17.17;;;12.30;;
35540;SDS011;21650;48.840;9.162;2023-03-16T01:58:48;20.43;;;11.80;;
35540;SDS011;21650;48.840;9.162;2023-03-16T02:01:16;17.37;;;12.53;;
35540;SDS011;21650;48.840;9.162;2023-03-16T02:03:42;17.33;;;12.97;;
35540;SDS011;21650;48.840;9.162;2023-03-16T02:06:13;17.23;;;11.83;;
35540;SDS011;21650;48.840;9.162;2023-03-16T02:08:42;17.23;;;11.73;;
35540;SDS011;21650;48.840;9.162;2023-03-16T02:11:09;20.07;;;11.57;;
35540;SDS011;21650;48.840;9.162;2023-03-16T02:13:35;21.67;;;11.80;;
35540;SDS011;21650;48.840;9.162;2023-03-16T02:16:01;16.77;;;12.07;;
35540;SDS011;21650;48.840;9.162;2023-03-16T02:18:29;21.30;;;12.57;;
35540;SDS011;21650;48.840;9.162;2023-03-16T02:21:17;17.27;;;11.50;;
35540;SDS011;21650;48.840;9.162;2023-03-16T02:23:44;16.23;;;10.90;;
35540;SDS011;21650;48.840;9.162;2023-03-16T02:26:15;18.43;;;11.63;;
35540;SDS011;21650;48.840;9.162;2023-03-16T02:31:43;18.47;;;12.67;;
35540;SDS011;21650;48.840;9.162;2023-03-16T02:34:09;18.80;;;12.90;;
35540;SDS011;21650;48.840;9.162;2023-03-16T02:36:37;19.83;;;12.27;;
35540;SDS011;21650;48.840;9.162;2023-03-16T02:39:05;18.90;;;11.87;;
35540;SDS011;21650;48.840;9.162;2023-03-16T02:41:31;21.67;;;13.27;;
35540;SDS011;21650;48.840;9.162;2023-03-16T02:44:00;17.17;;;12.17;;
35540;SDS011;21650;48.840;9.162;2023-03-16T02:46:31;17.77;;;12.93;;
35540;SDS011;21650;48.840;9.162;2023-03-16T02:51:48;22.30;;;13.13;;
35540;SDS011;21650;48.840;9.162;2023-03-16T02:54:14;20.93;;;13.37;;
35540;SDS011;21650;48.840;9.162;2023-03-16T02:56:40;20.07;;;13.83;;
35540;SDS011;21650;48.840;9.162;2023-03-16T02:59:06;21.73;;;13.83;;
35540;SDS011;21650;48.840;9.162;2023-03-16T03:01:32;17.47;;;11.60;;
35540;SDS011;21650;48.840;9.162;2023-03-16T03:03:59;22.37;;;12.30;;
35540;SDS011;21650;48.840;9.162;2023-03-16T03:06:25;21.13;;;12.80;;
35540;SDS011;21650;48.840;9.162;2023-03-16T03:08:51;22.13;;;13.27;;
35540;SDS011;21650;48.840;9.162;2023-03-16T03:11:16;19.93;;;13.27;;
35540;SDS011;21650;48.840;9.162;2023-03-16T03:13:43;21.83;;;12.03;;
35540;SDS011;21650;48.840;9.162;2023-03-16T03:16:10;20.90;;;12.73;;
35540;SDS011;21650;48.840;9.162;2023-03-16T03:18:36;19.30;;;12.60;;
35540;SDS011;21650;48.840;9.162;2023-03-16T03:21:02;19.73;;;12.50;;
35540;SDS011;21650;48.840;9.162;2023-03-16T03:23:29;20.40;;;12.67;;
35540;SDS011;21650;48.840;9.162;2023-03-16T03:25:58;16.83;;;12.00;;
35540;SDS011;21650;48.840;9.162;2023-03-16T03:28:24;18.63;;;12.57;;
35540;SDS011;21650;48.840;9.162;2023-03-16T03:30:50;18.60;;;12.53;;
35540;SDS011;21650;48.840;9.162;2023-03-16T03:33:16;20.60;;;12.33;;
35540;SDS011;21650;48.840;9.162;2023-03-16T03:35:42;21.53;;;12.70;;
35540;SDS011;21650;48.840;9.162;2023-03-16T03:38:08;21.23;;;13.07;;
35540;SDS011;21650;48.840;9.162;2023-03-16T03:40:35;18.97;;;12.70;;
35540;SDS011;21650;48.840;9.162;2023-03-16T03:43:01;17.60;;;11.33;;
35540;SDS011;21650;48.840;9.162;2023-03-16T03:45:28;19.03;;;13.60;;
35540;SDS011;21650;48.840;9.162;2023-03-16T03:47:54;20.53;;;13.27;;
35540;SDS011;21650;48.840;9.162;2023-03-16T03:50:20;22.33;;;13.03;;
35540;SDS011;21650;48.840;9.162;2023-03-16T03:52:46;23.77;;;12.77;;
35540;SDS011;21650;48.840;9.162;2023-03-16T03:55:12;21.20;;;13.27;;
35540;SDS011;21650;48.840;9.162;2023-03-16T03:57:38;24.20;;;13.80;;
35540;SDS011;21650;48.840;9.162;2023-03-16T04:00:04;23.03;;;14.00;;
35540;SDS011;21650;48.840;9.162;2023-03-16T04:02:37;24.00;;;13.10;;
35540;SDS011;21650;48.840;9.162;2023-03-16T04:05:04;21.37;;;13.57;;
35540;SDS011;21650;48.840;9.162;2023-03-16T04:07:30;21.10;;;13.40;;
35540;SDS011;21650;48.840;9.162;2023-03-16T04:09:56;22.40;;;12.67;;
35540;SDS011;21650;48.840;9.162;2023-03-16T04:12:21;21.67;;;11.93;;
35540;SDS011;21650;48.840;9.162;2023-03-16T04:14:47;21.57;;;12.97;;
35540;SDS011;21650;48.840;9.162;2023-03-16T04:17:13;22.00;;;12.77;;
35540;SDS011;21650;48.840;9.162;2023-03-16T04:19:38;24.60;;;13.17;;
35540;SDS011;21650;48.840;9.162;2023-03-16T04:22:04;22.27;;;12.20;;
35540;SDS011;21650;48.840;9.162;2023-03-16T04:24:31;19.13;;;12.50;;
35540;SDS011;21650;48.840;9.162;2023-03-16T04:26:58;19.70;;;12.97;;
35540;SDS011;21650;48.840;9.162;2023-03-16T04:29:24;19.27;;;13.37;;
35540;SDS011;21650;48.840;9.162;2023-03-16T04:31:50;20.17;;;13.47;;
35540;SDS011;21650;48.840;9.162;2023-03-16T04:34:17;19.13;;;12.40;;
35540;SDS011;21650;48.840;9.162;2023-03-16T04:36:44;21.23;;;12.77;;
35540;SDS011;21650;48.840;9.162;2023-03-16T04:39:09;19.67;;;13.10;;
35540;SDS011;21650;48.840;9.162;2023-03-16T04:41:35;19.53;;;12.30;;
35540;SDS011;21650;48.840;9.162;2023-03-16T04:44:00;20.87;;;13.30;;
35540;SDS011;21650;48.840;9.162;2023-03-16T04:46:26;20.50;;;13.13;;
35540;SDS011;21650;48.840;9.162;2023-03-16T04:48:51;18.93;;;12.57;;
35540;SDS011;21650;48.840;9.162;2023-03-16T04:51:17;21.47;;;12.47;;
35540;SDS011;21650;48.840;9.162;2023-03-16T04:53:43;22.80;;;12.73;;
35540;SDS011;21650;48.840;9.162;2023-03-16T04:56:08;19.80;;;11.90;;
35540;SDS011;21650;48.840;9.162;2023-03-16T04:58:42;18.70;;;11.30;;
35540;SDS011;21650;48.840;9.162;2023-03-16T05:01:09;21.37;;;13.37;;
35540;SDS011;21650;48.840;9.162;2023-03-16T05:03:34;21.27;;;12.53;;
35540;SDS011;21650;48.840;9.162;2023-03-16T05:06:00;16.87;;;12.03;;
35540;SDS011;21650;48.840;9.162;2023-03-16T05:08:25;19.57;;;12.10;;
35540;SDS011;21650;48.840;9.162;2023-03-16T05:10:55;18.80;;;12.17;;
35540;SDS011;21650;48.840;9.162;2023-03-16T05:13:23;18.23;;;10.57;;
35540;SDS011;21650;48.840;9.162;2023-03-16T05:15:49;22.30;;;12.13;;
35540;SDS011;21650;48.840;9.162;2023-03-16T05:18:18;19.27;;;11.87;;
35540;SDS011;21650;48.840;9.162;2023-03-16T05:20:44;17.17;;;12.57;;
35540;SDS011;21650;48.840;9.162;2023-03-16T05:23:09;20.37;;;13.27;;
35540;SDS011;21650;48.840;9.162;2023-03-16T05:25:35;19.20;;;11.80;;
35540;SDS011;21650;48.840;9.162;2023-03-16T05:28:02;17.40;;;12.13;;
35540;SDS011;21650;48.840;9.162;2023-03-16T05:30:28;22.47;;;13.33;;
35540;SDS011;21650;48.840;9.162;2023-03-16T05:32:55;23.43;;;13.97;;
35540;SDS011;21650;48.840;9.162;2023-03-16T05:35:22;17.67;;;11.87;;
35540;SDS011;21650;48.840;9.162;2023-03-16T05:37:47;21.83;;;12.27;;
35540;SDS011;21650;48.840;9.162;2023-03-16T05:40:13;21.77;;;12.53;;
35540;SDS011;21650;48.840;9.162;2023-03-16T05:42:46;17.67;;;12.73;;
35540;SDS011;21650;48.840;9.162;2023-03-16T05:45:13;21.10;;;12.73;;
35540;SDS011;21650;48.840;9.162;2023-03-16T05:47:40;15.73;;;11.37;;
35540;SDS011;21650;48.840;9.162;2023-03-16T05:50:07;17.07;;;12.10;;
35540;SDS011;21650;48.840;9.162;2023-03-16T05:52:35;20.93;;;12.77;;
35540;SDS011;21650;48.840;9.162;2023-03-16T05:55:02;21.77;;;12.73;;
35540;SDS011;21650;48.840;9.162;2023-03-16T05:57:29;19.53;;;11.97;;
35540;SDS011;21650;48.840;9.162;2023-03-16T05:59:55;22.97;;;12.67;;
35540;SDS011;21650;48.840;9.162;2023-03-16T06:02:21;23.90;;;13.47;;
35540;SDS011;21650;48.840;9.162;2023-03-16T06:04:47;16.17;;;12.10;;
35540;SDS011;21650;48.840;9.162;2023-03-16T06:07:12;19.40;;;12.23;;
35540;SDS011;21650;48.840;9.162;2023-03-16T06:09:38;23.80;;;12.83;;
35540;SDS011;21650;48.840;9.162;2023-03-16T06:12:03;19.30;;;11.70;;
35540;SDS011;21650;48.840;9.162;2023-03-16T06:14:29;23.30;;;13.30;;
35540;SDS011;21650;48.840;9.162;2023-03-16T06:16:55;21.60;;;13.23;;
35540;SDS011;21650;48.840;9.162;2023-03-16T06:19:20;19.67;;;12.27;;
35540;SDS011;21650;48.840;9.162;2023-03-16T06:21:46;22.17;;;12.83;;
35540;SDS011;21650;48.840;9.162;2023-03-16T06:24:11;20.83;;;12.67;;
35540;SDS011;21650;48.840;9.162;2023-03-16T06:26:37;22.67;;;13.83;;
35540;SDS011;21650;48.840;9.162;2023-03-16T06:29:03;22.87;;;14.23;;
35540;SDS011;21650;48.840;9.162;2023-03-16T06:31:30;20.50;;;11.83;;
35540;SDS011;21650;48.840;9.162;2023-03-16T06:33:55;21.13;;;11.90;;
35540;SDS011;21650;48.840;9.162;2023-03-16T06:36:21;22.50;;;11.97;;
35540;SDS011;21650;48.840;9.162;2023-03-16T06:38:46;21.60;;;13.43;;
35540;SDS011;21650;48.840;9.162;2023-03-16T06:41:12;22.83;;;12.73;;
35540;SDS011;21650;48.840;9.162;2023-03-16T06:43:38;22.27;;;13.67;;
35540;SDS011;21650;48.840;9.162;2023-03-16T06:46:03;22.73;;;13.47;;
35540;SDS011;21650;48.840;9.162;2023-03-16T06:48:29;21.60;;;13.50;;
35540;SDS011;21650;48.840;9.162;2023-03-16T06:50:55;23.67;;;13.77;;
35540;SDS011;21650;48.840;9.162;2023-03-16T06:53:20;28.17;;;13.77;;
35540;SDS011;21650;48.840;9.162;2023-03-16T06:55:46;21.80;;;13.13;;
35540;SDS011;21650;48.840;9.162;2023-03-16T06:58:12;24.43;;;14.13;;
35540;SDS011;21650;48.840;9.162;2023-03-16T07:00:38;22.90;;;13.33;;
35540;SDS011;21650;48.840;9.162;2023-03-16T07:03:03;23.83;;;14.40;;
35540;SDS011;21650;48.840;9.162;2023-03-16T07:05:29;24.37;;;15.10;;
35540;SDS011;21650;48.840;9.162;2023-03-16T07:07:55;28.13;;;14.47;;
35540;SDS011;21650;48.840;9.162;2023-03-16T07:10:21;29.47;;;14.43;;
35540;SDS011;21650;48.840;9.162;2023-03-16T07:12:47;26.20;;;15.67;;
35540;SDS011;21650;48.840;9.162;2023-03-16T07:15:13;28.63;;;15.30;;
35540;SDS011;21650;48.840;9.162;2023-03-16T07:17:39;28.83;;;16.63;;
35540;SDS011;21650;48.840;9.162;2023-03-16T07:20:06;31.77;;;16.63;;
35540;SDS011;21650;48.840;9.162;2023-03-16T07:22:34;23.27;;;14.60;;
35540;SDS011;21650;48.840;9.162;2023-03-16T07:25:01;36.43;;;17.43;;
35540;SDS011;21650;48.840;9.162;2023-03-16T07:27:26;29.80;;;17.30;;
35540;SDS011;21650;48.840;9.162;2023-03-16T07:29:53;33.17;;;16.57;;
35540;SDS011;21650;48.840;9.162;2023-03-16T07:32:19;29.67;;;16.40;;
35540;SDS011;21650;48.840;9.162;2023-03-16T07:34:45;27.40;;;16.57;;
35540;SDS011;21650;48.840;9.162;2023-03-16T07:37:11;28.63;;;16.50;;
35540;SDS011;21650;48.840;9.162;2023-03-16T07:39:37;31.10;;;16.80;;
35540;SDS011;21650;48.840;9.162;2023-03-16T07:42:03;28.90;;;16.07;;
35540;SDS011;21650;48.840;9.162;2023-03-16T07:44:29;29.47;;;17.23;;
35540;SDS011;21650;48.840;9.162;2023-03-16T07:46:55;29.80;;;16.33;;
35540;SDS011;21650;48.840;9.162;2023-03-16T07:49:20;25.90;;;15.67;;
35540;SDS011;21650;48.840;9.162;2023-03-16T07:51:46;30.33;;;17.17;;
35540;SDS011;21650;48.840;9.162;2023-03-16T07:54:12;27.63;;;17.20;;
35540;SDS011;21650;48.840;9.162;2023-03-16T07:56:38;31.00;;;14.90;;
35540;SDS011;21650;48.840;9.162;2023-03-16T07:59:03;32.63;;;15.03;;
35540;SDS011;21650;48.840;9.162;2023-03-16T08:01:29;30.43;;;17.30;;
35540;SDS011;21650;48.840;9.162;2023-03-16T08:03:54;31.40;;;17.70;;
35540;SDS011;21650;48.840;9.162;2023-03-16T08:06:20;27.00;;;15.63;;
35540;SDS011;21650;48.840;9.162;2023-03-16T08:08:46;25.67;;;14.03;;
35540;SDS011;21650;48.840;9.162;2023-03-16T08:11:12;22.67;;;13.80;;
35540;SDS011;21650;48.840;9.162;2023-03-16T08:13:38;22.97;;;14.33;;
35540;SDS011;21650;48.840;9.162;2023-03-16T08:16:07;25.77;;;14.27;;
35540;SDS011;21650;48.840;9.162;2023-03-16T08:18:34;19.23;;;11.83;;
35540;SDS011;21650;48.840;9.162;2023-03-16T08:21:00;19.50;;;12.13;;
35540;SDS011;21650;48.840;9.162;2023-03-16T08:23:26;18.33;;;12.47;;
35540;SDS011;21650;48.840;9.162;2023-03-16T08:25:53;21.40;;;13.27;;
35540;SDS011;21650;48.840;9.162;2023-03-16T08:28:21;17.50;;;11.53;;
35540;SDS011;21650;48.840;9.162;2023-03-16T08:30:47;21.50;;;12.97;;
35540;SDS011;21650;48.840;9.162;2023-03-16T08:33:14;22.27;;;11.53;;
35540;SDS011;21650;48.840;9.162;2023-03-16T08:35:42;19.17;;;11.13;;
35540;SDS011;21650;48.840;9.162;2023-03-16T08:38:08;22.13;;;11.17;;
35540;SDS011;21650;48.840;9.162;2023-03-16T08:40:38;19.23;;;11.43;;
35540;SDS011;21650;48.840;9.162;2023-03-16T08:43:06;20.40;;;11.77;;
35540;SDS011;21650;48.840;9.162;2023-03-16T08:45:32;18.13;;;12.23;;
35540;SDS011;21650;48.840;9.162;2023-03-16T08:47:58;16.87;;;10.47;;
35540;SDS011;21650;48.840;9.162;2023-03-16T08:50:24;18.40;;;10.97;;
35540;SDS011;21650;48.840;9.162;2023-03-16T08:52:50;17.77;;;10.90;;
35540;SDS011;21650;48.840;9.162;2023-03-16T08:55:15;19.77;;;11.20;;
35540;SDS011;21650;48.840;9.162;2023-03-16T08:57:41;14.10;;;9.73;;
35540;SDS011;21650;48.840;9.162;2023-03-16T09:00:09;16.93;;;9.27;;
35540;SDS011;21650;48.840;9.162;2023-03-16T09:02:39;12.93;;;8.83;;
35540;SDS011;21650;48.840;9.162;2023-03-16T09:05:08;12.27;;;8.53;;
35540;SDS011;21650;48.840;9.162;2023-03-16T09:07:36;14.97;;;8.83;;
35540;SDS011;21650;48.840;9.162;2023-03-16T09:10:03;11.50;;;8.10;;
35540;SDS011;21650;48.840;9.162;2023-03-16T09:12:30;13.63;;;8.93;;
35540;SDS011;21650;48.840;9.162;2023-03-16T09:14:59;13.40;;;9.20;;
35540;SDS011;21650;48.840;9.162;2023-03-16T09:17:24;16.10;;;8.17;;
35540;SDS011;21650;48.840;9.162;2023-03-16T09:19:50;11.27;;;8.17;;
35540;SDS011;21650;48.840;9.162;2023-03-16T09:22:16;15.00;;;7.80;;
35540;SDS011;21650;48.840;9.162;2023-03-16T09:24:43;12.00;;;7.40;;
35540;SDS011;21650;48.840;9.162;2023-03-16T09:27:09;9.03;;;6.90;;
35540;SDS011;21650;48.840;9.162;2023-03-16T09:29:34;10.00;;;7.33;;
35540;SDS011;21650;48.840;9.162;2023-03-16T09:32:00;11.30;;;7.87;;
35540;SDS011;21650;48.840;9.162;2023-03-16T09:34:26;12.20;;;7.70;;
35540;SDS011;21650;48.840;9.162;2023-03-16T09:36:52;12.03;;;7.17;;
35540;SDS011;21650;48.840;9.162;2023-03-16T09:39:17;8.33;;;6.23;;
35540;SDS011;21650;48.840;9.162;2023-03-16T09:41:47;8.27;;;6.53;;
35540;SDS011;21650;48.840;9.162;2023-03-16T09:47:02;10.20;;;6.20;;
35540;SDS011;21650;48.840;9.162;2023-03-16T09:49:33;13.03;;;6.73;;
35540;SDS011;21650;48.840;9.162;2023-03-16T09:54:45;11.30;;;5.70;;
35540;SDS011;21650;48.840;9.162;2023-03-16T09:59:52;7.30;;;5.30;;
35540;SDS011;21650;48.840;9.162;2023-03-16T10:05:14;10.47;;;6.57;;
35540;SDS011;21650;48.840;9.162;2023-03-16T10:07:42;9.63;;;5.97;;
35540;SDS011;21650;48.840;9.162;2023-03-16T10:15:47;13.07;;;6.50;;
35540;SDS011;21650;48.840;9.162;2023-03-16T10:18:16;11.30;;;5.93;;
35540;SDS011;21650;48.840;9.162;2023-03-16T10:20:46;12.93;;;5.93;;
35540;SDS011;21650;48.840;9.162;2023-03-16T10:23:17;7.20;;;5.97;;
35540;SDS011;21650;48.840;9.162;2023-03-16T10:25:49;8.77;;;6.43;;
35540;SDS011;21650;48.840;9.162;2023-03-16T10:28:17;11.07;;;5.70;;
35540;SDS011;21650;48.840;9.162;2023-03-16T10:30:45;6.60;;;4.97;;
35540;SDS011;21650;48.840;9.162;2023-03-16T10:35:46;8.07;;;5.83;;
35540;SDS011;21650;48.840;9.162;2023-03-16T10:40:57;9.47;;;5.50;;
35540;SDS011;21650;48.840;9.162;2023-03-16T10:43:24;9.37;;;5.33;;
35540;SDS011;21650;48.840;9.162;2023-03-16T10:45:56;9.07;;;6.30;;
35540;SDS011;21650;48.840;9.162;2023-03-16T10:48:24;10.10;;;5.70;;
35540;SDS011;21650;48.840;9.162;2023-03-16T10:50:55;6.83;;;4.87;;
35540;SDS011;21650;48.840;9.162;2023-03-16T10:53:22;8.13;;;4.60;;
35540;SDS011;21650;48.840;9.162;2023-03-16T10:55:56;9.13;;;4.97;;
35540;SDS011;21650;48.840;9.162;2023-03-16T10:58:24;10.47;;;4.30;;
35540;SDS011;21650;48.840;9.162;2023-03-16T11:00:53;6.27;;;4.73;;
35540;SDS011;21650;48.840;9.162;2023-03-16T11:03:29;6.93;;;4.57;;
35540;SDS011;21650;48.840;9.162;2023-03-16T11:06:04;7.83;;;4.20;;
35540;SDS011;21650;48.840;9.162;2023-03-16T11:08:33;8.47;;;4.53;;
35540;SDS011;21650;48.840;9.162;2023-03-16T11:13:58;7.17;;;4.70;;
35540;SDS011;21650;48.840;9.162;2023-03-16T11:19:24;6.53;;;3.53;;
35540;SDS011;21650;48.840;9.162;2023-03-16T11:21:55;6.77;;;4.23;;
35540;SDS011;21650;48.840;9.162;2023-03-16T11:27:41;4.60;;;3.83;;
35540;SDS011;21650;48.840;9.162;2023-03-16T11:30:27;5.40;;;3.80;;
35540;SDS011;21650;48.840;9.162;2023-03-16T11:33:12;9.13;;;4.13;;
35540;SDS011;21650;48.840;9.162;2023-03-16T11:40:56;6.60;;;3.83;;
35540;SDS011;21650;48.840;9.162;2023-03-16T11:52:11;6.33;;;3.37;;
35540;SDS011;21650;48.840;9.162;2023-03-16T12:11:19;8.07;;;2.83;;
35540;SDS011;21650;48.840;9.162;2023-03-16T12:13:58;4.30;;;2.50;;
35540;SDS011;21650;48.840;9.162;2023-03-16T12:16:33;4.37;;;2.20;;
35540;SDS011;21650;48.840;9.162;2023-03-16T12:21:56;2.17;;;1.97;;
35540;SDS011;21650;48.840;9.162;2023-03-16T12:24:30;3.90;;;2.87;;
35540;SDS011;21650;48.840;9.162;2023-03-16T12:27:04;3.57;;;2.67;;
35540;SDS011;21650;48.840;9.162;2023-03-16T12:32:29;5.10;;;2.30;;
35540;SDS011;21650;48.840;9.162;2023-03-16T12:35:24;5.23;;;2.70;;
35540;SDS011;21650;48.840;9.162;2023-03-16T12:40:37;6.67;;;2.97;;
35540;SDS011;21650;48.840;9.162;2023-03-16T12:43:29;5.93;;;3.10;;
35540;SDS011;21650;48.840;9.162;2023-03-16T12:48:36;3.67;;;2.63;;
35540;SDS011;21650;48.840;9.162;2023-03-16T12:51:06;3.83;;;2.63;;
35540;SDS011;21650;48.840;9.162;2023-03-16T12:53:42;3.70;;;2.63;;
35540;SDS011;21650;48.840;9.162;2023-03-16T12:56:09;6.20;;;2.93;;
35540;SDS011;21650;48.840;9.162;2023-03-16T12:58:46;3.63;;;2.30;;
35540;SDS011;21650;48.840;9.162;2023-03-16T13:01:16;4.70;;;2.43;;
35540;SDS011;21650;48.840;9.162;2023-03-16T13:03:48;4.43;;;2.80;;
35540;SDS011;21650;48.840;9.162;2023-03-16T13:06:19;4.80;;;2.83;;
35540;SDS011;21650;48.840;9.162;2023-03-16T13:08:49;8.40;;;3.40;;
35540;SDS011;21650;48.840;9.162;2023-03-16T13:11:18;4.87;;;2.90;;
35540;SDS011;21650;48.840;9.162;2023-03-16T13:13:52;4.77;;;2.67;;
35540;SDS011;21650;48.840;9.162;2023-03-16T13:16:33;5.90;;;2.67;;
35540;SDS011;21650;48.840;9.162;2023-03-16T13:19:15;4.83;;;2.60;;
35540;SDS011;21650;48.840;9.162;2023-03-16T13:22:04;4.23;;;2.83;;
35540;SDS011;21650;48.840;9.162;2023-03-16T13:24:48;3.77;;;2.80;;
35540;SDS011;21650;48.840;9.162;2023-03-16T13:27:19;6.20;;;3.00;;
35540;SDS011;21650;48.840;9.162;2023-03-16T13:29:54;5.40;;;3.00;;
35540;SDS011;21650;48.840;9.162;2023-03-16T13:32:23;5.27;;;2.83;;
35540;SDS011;21650;48.840;9.162;2023-03-16T13:34:55;8.10;;;3.50;;
35540;SDS011;21650;48.840;9.162;2023-03-16T13:37:27;8.07;;;3.50;;
35540;SDS011;21650;48.840;9.162;2023-03-16T13:39:54;3.83;;;2.63;;
35540;SDS011;21650;48.840;9.162;2023-03-16T13:42:23;5.37;;;3.00;;
35540;SDS011;21650;48.840;9.162;2023-03-16T13:44:52;5.83;;;2.70;;
35540;SDS011;21650;48.840;9.162;2023-03-16T13:47:20;6.00;;;3.83;;
35540;SDS011;21650;48.840;9.162;2023-03-16T13:49:53;6.03;;;3.50;;
35540;SDS011;21650;48.840;9.162;2023-03-16T13:54:52;5.67;;;3.10;;
35540;SDS011;21650;48.840;9.162;2023-03-16T13:57:19;5.60;;;2.60;;
35540;SDS011;21650;48.840;9.162;2023-03-16T13:59:48;4.80;;;2.73;;
35540;SDS011;21650;48.840;9.162;2023-03-16T14:02:18;7.40;;;3.10;;
35540;SDS011;21650;48.840;9.162;2023-03-16T14:04:46;5.17;;;2.50;;
35540;SDS011;21650;48.840;9.162;2023-03-16T14:07:13;5.47;;;2.30;;
35540;SDS011;21650;48.840;9.162;2023-03-16T14:09:41;3.10;;;2.17;;
35540;SDS011;21650;48.840;9.162;2023-03-16T14:12:13;4.87;;;2.67;;
35540;SDS011;21650;48.840;9.162;2023-03-16T14:14:39;4.73;;;2.43;;
35540;SDS011;21650;48.840;9.162;2023-03-16T14:17:12;2.83;;;2.00;;
35540;SDS011;21650;48.840;9.162;2023-03-16T14:19:42;4.93;;;3.10;;
35540;SDS011;21650;48.840;9.162;2023-03-16T14:22:17;5.30;;;3.00;;
35540;SDS011;21650;48.840;9.162;2023-03-16T14:24:51;8.20;;;3.37;;
35540;SDS011;21650;48.840;9.162;2023-03-16T14:29:49;4.27;;;2.53;;
35540;SDS011;21650;48.840;9.162;2023-03-16T14:32:19;4.10;;;2.40;;
35540;SDS011;21650;48.840;9.162;2023-03-16T14:34:52;3.93;;;2.80;;
35540;SDS011;21650;48.840;9.162;2023-03-16T14:37:32;4.50;;;2.43;;
35540;SDS011;21650;48.840;9.162;2023-03-16T14:40:00;3.20;;;2.43;;
35540;SDS011;21650;48.840;9.162;2023-03-16T14:42:30;6.27;;;2.60;;
35540;SDS011;21650;48.840;9.162;2023-03-16T14:45:08;4.60;;;2.67;;
35540;SDS011;21650;48.840;9.162;2023-03-16T14:47:38;3.60;;;2.07;;
35540;SDS011;21650;48.840;9.162;2023-03-16T14:50:11;7.37;;;2.30;;
35540;SDS011;21650;48.840;9.162;2023-03-16T14:52:41;6.23;;;2.53;;
35540;SDS011;21650;48.840;9.162;2023-03-16T14:55:13;5.13;;;2.50;;
35540;SDS011;21650;48.840;9.162;2023-03-16T14:57:40;7.43;;;2.40;;
35540;SDS011;21650;48.840;9.162;2023-03-16T15:00:08;3.87;;;2.43;;
35540;SDS011;21650;48.840;9.162;2023-03-16T15:02:36;4.27;;;2.60;;
35540;SDS011;21650;48.840;9.162;2023-03-16T15:05:03;5.03;;;2.50;;
35540;SDS011;21650;48.840;9.162;2023-03-16T15:07:30;3.30;;;2.10;;
35540;SDS011;21650;48.840;9.162;2023-03-16T15:12:40;5.03;;;2.70;;
35540;SDS011;21650;48.840;9.162;2023-03-16T15:15:14;5.97;;;2.80;;
35540;SDS011;21650;48.840;9.162;2023-03-16T15:17:42;3.87;;;2.97;;
35540;SDS011;21650;48.840;9.162;2023-03-16T15:20:15;5.17;;;3.03;;
35540;SDS011;21650;48.840;9.162;2023-03-16T15:22:53;3.27;;;2.43;;
35540;SDS011;21650;48.840;9.162;2023-03-16T15:25:30;4.50;;;2.73;;
35540;SDS011;21650;48.840;9.162;2023-03-16T15:28:11;5.30;;;3.00;;
35540;SDS011;21650;48.840;9.162;2023-03-16T15:30:45;4.73;;;2.40;;
35540;SDS011;21650;48.840;9.162;2023-03-16T15:33:12;5.50;;;2.50;;
35540;SDS011;21650;48.840;9.162;2023-03-16T15:35:38;3.93;;;2.77;;
35540;SDS011;21650;48.840;9.162;2023-03-16T15:38:05;4.77;;;2.93;;
35540;SDS011;21650;48.840;9.162;2023-03-16T15:40:40;4.43;;;3.10;;
35540;SDS011;21650;48.840;9.162;2023-03-16T15:43:11;10.63;;;2.70;;
35540;SDS011;21650;48.840;9.162;2023-03-16T15:45:38;6.27;;;3.20;;
35540;SDS011;21650;48.840;9.162;2023-03-16T15:48:04;4.50;;;3.10;;
35540;SDS011;21650;48.840;9.162;2023-03-16T15:50:30;6.70;;;3.50;;
35540;SDS011;21650;48.840;9.162;2023-03-16T15:52:58;6.30;;;3.83;;
35540;SDS011;21650;48.840;9.162;2023-03-16T15:55:47;4.93;;;3.07;;
35540;SDS011;21650;48.840;9.162;2023-03-16T15:58:19;4.80;;;3.50;;
35540;SDS011;21650;48.840;9.162;2023-03-16T16:00:49;2.97;;;2.03;;
35540;SDS011;21650;48.840;9.162;2023-03-16T16:03:19;5.83;;;3.27;;
35540;SDS011;21650;48.840;9.162;2023-03-16T16:05:45;4.27;;;2.53;;